Time,TemperatureF,DewpointF,PressureIn,WindDirection,WindDirectionDegrees,WindSpeedMPH,WindSpeedGustMPH,Humidity,HourlyPrecipIn,Conditions,Clouds,dailyrainin,SolarRadiationWatts/m^2,SoftwareType,DateUTC
2013-01-10 01:41:00,42.3,33.2,30.18,NNW,341,1.0,1.0,70,0.00,,,0.00,0,Wunderground v.1.15,2013-01-09 23:41:00,
2013-01-10 01:51:00,42.3,33.2,30.18,NNW,341,0.0,0.0,70,0.00,,,0.00,0,Wunderground v.1.15,2013-01-09 23:51:00,
2013-01-10 02:01:00,42.5,33.4,30.18,NNW,341,0.0,0.0,70,0.00,,,0.00,0,Wunderground v.1.15,2013-01-10 00:01:00,
2013-01-10 02:26:00,42.5,33.0,30.18,NNW,341,0.0,0.0,69,0.00,,,0.00,0,Wunderground v.1.15,2013-01-10 00:26:00,
2013-01-10 02:46:00,42.4,32.9,30.18,NNW,341,0.0,0.0,69,0.00,,,0.00,0,Wunderground v.1.15,2013-01-10 00:46:00,
2013-01-10 02:56:00,41.9,32.5,30.18,NNW,341,0.0,0.0,69,0.00,,,0.00,0,Wunderground v.1.15,2013-01-10 00:56:00,
2013-01-10 03:06:00,41.6,32.2,30.18,NNW,341,1.0,1.0,69,0.00,,,0.00,0,Wunderground v.1.15,2013-01-10 01:06:00,
2013-01-10 03:16:00,41.4,32.3,30.18,NNW,341,0.0,0.0,70,0.00,,,0.00,0,Wunderground v.1.15,2013-01-10 01:16:00,
2013-01-10 03:41:00,41.1,32.4,30.18,NNW,341,0.0,0.0,71,0.00,,,0.00,0,Wunderground v.1.15,2013-01-10 01:41:00,
2013-01-10 03:51:00,41.2,32.5,30.18,NNW,341,0.0,0.0,71,0.00,,,0.00,0,Wunderground v.1.15,2013-01-10 01:51:00,
2013-01-10 04:16:00,41.1,32.4,30.17,NNW,341,0.0,0.0,71,0.00,,,0.00,0,Wunderground v.1.15,2013-01-10 02:16:00,
2013-01-10 04:31:00,40.6,32.3,30.17,NNW,341,0.0,0.0,72,0.00,,,0.00,0,Wunderground v.1.15,2013-01-10 02:31:00,
2013-01-10 04:41:00,40.5,32.2,30.17,NNW,341,1.0,1.0,72,0.00,,,0.00,0,Wunderground v.1.15,2013-01-10 02:41:00,
2013-01-10 04:56:00,40.7,32.0,30.17,NNW,341,1.0,1.0,71,0.00,,,0.00,0,Wunderground v.1.15,2013-01-10 02:56:00,
2013-01-10 05:16:00,40.6,29.0,30.17,NNW,341,1.0,1.0,63,0.00,,,0.00,0,Wunderground v.1.15,2013-01-10 03:16:00,
2013-01-10 05:41:00,40.4,30.7,30.17,NNW,341,1.0,2.0,68,0.00,,,0.00,0,Wunderground v.1.15,2013-01-10 03:41:00,
2013-01-10 05:51:00,40.2,30.5,30.17,NNW,341,2.0,3.0,68,0.00,,,0.00,0,Wunderground v.1.15,2013-01-10 03:51:00,
2013-01-10 06:01:00,40.3,29.8,30.17,NNW,341,2.0,2.0,66,0.00,,,0.00,0,Wunderground v.1.15,2013-01-10 04:01:00,
2013-01-10 06:11:00,40.4,29.6,30.18,NNW,341,0.0,0.0,65,0.00,,,0.00,0,Wunderground v.1.15,2013-01-10 04:11:00,
2013-01-10 06:36:00,40.6,26.1,30.18,NNW,341,1.0,1.0,56,0.00,,,0.00,0,Wunderground v.1.15,2013-01-10 04:36:00,
2013-01-10 06:46:00,40.6,25.2,30.18,NNW,341,2.0,2.0,54,0.00,,,0.00,0,Wunderground v.1.15,2013-01-10 04:46:00,
2013-01-10 06:56:00,40.5,28.5,30.18,NNW,341,0.0,2.0,62,0.00,,,0.00,0,Wunderground v.1.15,2013-01-10 04:56:00,
2013-01-10 07:06:00,40.2,29.0,30.18,NNW,341,0.0,0.0,64,0.00,,,0.00,0,Wunderground v.1.15,2013-01-10 05:06:00,
2013-01-10 07:16:00,40.1,28.1,30.18,NNW,341,0.0,0.0,62,0.00,,,0.00,0,Wunderground v.1.15,2013-01-10 05:16:00,
2013-01-10 07:26:00,40.1,25.6,30.18,NNW,341,2.0,2.0,56,0.00,,,0.00,0,Wunderground v.1.15,2013-01-10 05:26:00,
2013-01-10 07:41:00,40.2,27.0,30.19,NNW,341,0.0,0.0,59,0.00,,,0.00,5,Wunderground v.1.15,2013-01-10 05:41:00,
2013-01-10 07:51:00,40.0,28.8,30.19,NNW,341,0.0,0.0,64,0.00,,,0.00,9,Wunderground v.1.15,2013-01-10 05:51:00,
2013-01-10 08:16:00,40.0,29.9,30.19,NNW,341,0.0,0.0,67,0.00,,,0.00,35,Wunderground v.1.15,2013-01-10 06:16:00,
2013-01-10 08:31:00,40.8,30.3,30.19,NNW,341,0.0,0.0,66,0.00,,,0.00,69,Wunderground v.1.15,2013-01-10 06:31:00,
2013-01-10 08:51:00,42.1,27.5,30.19,NNW,341,1.0,1.0,56,0.00,,,0.00,125,Wunderground v.1.15,2013-01-10 06:51:00,
2013-01-10 09:06:00,43.3,26.4,30.19,NNW,341,0.0,1.0,51,0.00,,,0.00,171,Wunderground v.1.15,2013-01-10 07:06:00,
2013-01-10 09:26:00,44.3,25.3,30.19,NNW,341,1.0,2.0,47,0.00,,,0.00,223,Wunderground v.1.15,2013-01-10 07:26:00,
2013-01-10 10:01:00,47.3,25.3,30.19,NNW,341,0.0,0.0,42,0.00,,,0.00,304,Wunderground v.1.15,2013-01-10 08:01:00,
2013-01-10 10:11:00,48.0,25.4,30.19,NNW,341,0.0,0.0,41,0.00,,,0.00,329,Wunderground v.1.15,2013-01-10 08:11:00,